In Rescue
 
Open Full Screen Window  High Contrast Mode
Wind Gusting 00 knots
05
May 25, 2022 9:01 PM EDT
Present Weather: Light Rain
Weather Information
Wind Direction
  080 °
Wind Speed
  05 kt (6 mph)
Wind Gust
  00 kt (0 mph)
Altimeter
30.03 in
Visibility
10 SM
Temperature
10° C
50° F
Dewpoint
10° C
50° F
Humidity
100%
1hr Rain Fall
00.08 in.
24hr Rain Fall
00.27 in.
Sky Condition
Overcast @ 4,700 ft
Broken @ 3,800 ft
Scattered @ 2,600 ft
VFR

METAR KDRM 260101Z AUTO 08005KT 10SM -RA SCT026 BKN038 OVC047 10/10 A3003 RMK AO2 T01010100 P0008

FAA Disclaimer: The data displayed is for advisory purposes only and is not to be used for flight planning or operations.